createdAt,value
2019-02-16T00:01:43.623Z,6.07
2019-02-16T00:04:12.638Z,5.53
2019-02-16T00:06:41.470Z,5.10
2019-02-16T00:09:10.487Z,4.80
2019-02-16T00:11:39.476Z,4.83
2019-02-16T00:14:08.475Z,5.33
2019-02-16T00:16:37.465Z,4.70
2019-02-16T00:19:06.509Z,5.63
2019-02-16T00:21:35.673Z,5.00
2019-02-16T00:24:04.671Z,5.43
2019-02-16T00:26:33.604Z,5.40
2019-02-16T00:29:02.585Z,5.37
2019-02-16T00:31:31.576Z,5.37
2019-02-16T00:34:00.528Z,5.07
2019-02-16T00:36:29.509Z,5.33
2019-02-16T00:38:58.718Z,5.57
2019-02-16T00:41:27.709Z,6.20
2019-02-16T00:43:56.717Z,5.40
2019-02-16T00:46:25.554Z,5.30
2019-02-16T00:48:54.596Z,5.17
2019-02-16T00:51:23.519Z,5.97
2019-02-16T00:53:52.563Z,5.67
2019-02-16T00:56:21.663Z,4.67
2019-02-16T00:58:50.690Z,5.10
2019-02-16T01:01:19.611Z,5.30
2019-02-16T01:03:48.579Z,5.80
2019-02-16T01:06:17.667Z,6.57
2019-02-16T01:08:46.666Z,5.37
2019-02-16T01:11:15.686Z,5.10
2019-02-16T01:13:44.703Z,5.53
2019-02-16T01:16:13.705Z,5.90
2019-02-16T01:18:42.728Z,6.17
2019-02-16T01:21:11.715Z,4.97
2019-02-16T01:23:40.683Z,5.57
2019-02-16T01:26:09.698Z,5.60
2019-02-16T01:28:38.606Z,5.10
2019-02-16T01:31:07.541Z,4.97
2019-02-16T01:33:36.544Z,5.67
2019-02-16T01:36:05.528Z,4.83
2019-02-16T01:38:34.600Z,5.50
2019-02-16T01:41:03.597Z,5.30
2019-02-16T01:43:35.529Z,5.50
2019-02-16T01:46:04.476Z,5.20
2019-02-16T01:48:33.408Z,5.57
2019-02-16T01:51:02.481Z,4.60
2019-02-16T01:53:31.501Z,5.40
2019-02-16T01:56:00.537Z,5.40
2019-02-16T01:58:29.552Z,5.23
2019-02-16T02:00:58.654Z,5.27
2019-02-16T02:03:27.679Z,5.90
2019-02-16T02:05:56.719Z,5.47
2019-02-16T02:08:25.749Z,5.17
2019-02-16T02:10:54.813Z,5.70
2019-02-16T02:13:23.825Z,5.30
2019-02-16T02:15:52.899Z,5.30
2019-02-16T02:18:21.915Z,5.73
2019-02-16T02:20:50.997Z,5.37
2019-02-16T02:23:20.052Z,5.40
2019-02-16T02:25:49.105Z,5.87
2019-02-16T02:28:18.127Z,5.43
2019-02-16T02:30:47.335Z,5.97
2019-02-16T02:33:16.428Z,4.90
2019-02-16T02:35:45.497Z,5.27
2019-02-16T02:38:14.552Z,4.93
2019-02-16T02:40:43.615Z,5.37
2019-02-16T02:43:12.674Z,5.30
2019-02-16T02:45:41.772Z,5.57
2019-02-16T02:48:10.866Z,5.07
2019-02-16T02:50:39.900Z,5.47
2019-02-16T02:53:08.971Z,5.10
2019-02-16T02:55:38.064Z,5.03
2019-02-16T02:58:07.091Z,5.10
2019-02-16T03:00:36.168Z,6.27
2019-02-16T03:03:05.237Z,4.97
2019-02-16T08:09:24.525Z,5.87
2019-02-16T08:12:11.371Z,6.70
2019-02-16T08:14:56.520Z,6.00
2019-02-16T08:17:44.305Z,5.33
2019-02-16T08:20:39.562Z,6.03
2019-02-16T08:23:20.592Z,5.80
2019-02-16T08:26:11.444Z,6.30
2019-02-16T08:28:54.761Z,6.57
2019-02-16T08:31:42.778Z,7.80
2019-02-16T08:34:37.281Z,6.30
2019-02-16T08:37:19.780Z,6.63
2019-02-16T08:40:02.543Z,6.60
2019-02-16T08:42:47.187Z,6.67
2019-02-16T08:45:33.264Z,6.10
2019-02-16T08:48:11.387Z,6.50
2019-02-16T08:51:02.056Z,6.07
2019-02-16T08:53:50.425Z,6.20
2019-02-16T08:56:38.419Z,5.73
2019-02-16T08:59:38.680Z,6.57
2019-02-16T09:02:17.650Z,6.30
2019-02-16T09:04:53.458Z,5.80
2019-02-16T09:07:31.136Z,6.30
2019-02-16T09:10:28.535Z,6.03
2019-02-16T09:13:22.756Z,6.40
2019-02-16T09:16:11.921Z,6.57
2019-02-16T09:19:00.820Z,6.33
2019-02-16T09:21:47.623Z,5.92
2019-02-16T09:24:44.738Z,6.05
2019-02-16T09:27:35.955Z,8.03
2019-02-16T09:30:25.332Z,7.20
2019-02-16T09:33:13.578Z,6.03
2019-02-16T09:35:51.342Z,7.00
2019-02-16T09:38:34.802Z,7.62
2019-02-16T09:41:15.491Z,6.12
2019-02-16T09:44:06.693Z,6.95
2019-02-16T09:46:49.600Z,6.05
2019-02-16T09:49:36.874Z,6.15
2019-02-16T09:52:23.314Z,5.67
2019-02-16T09:55:11.394Z,5.45
2019-02-16T09:57:56.486Z,5.90
2019-02-16T10:00:37.646Z,5.70
2019-02-16T10:03:28.732Z,6.00
2019-02-16T10:06:35.324Z,6.12
2019-02-16T10:09:12.843Z,5.50
2019-02-16T10:11:46.397Z,6.50
2019-02-16T10:14:32.932Z,6.25
2019-02-16T10:17:27.009Z,7.37
2019-02-16T10:20:26.937Z,6.28
2019-02-16T10:23:37.611Z,7.40
2019-02-16T10:26:34.840Z,6.62
2019-02-16T10:29:21.619Z,6.55
2019-02-16T10:31:59.618Z,7.20
2019-02-16T10:34:56.961Z,6.97
2019-02-16T10:37:33.620Z,7.30
2019-02-16T10:40:14.785Z,7.25
2019-02-16T10:43:01.140Z,7.03
2019-02-16T10:45:47.930Z,7.40
2019-02-16T10:48:37.414Z,7.92
2019-02-16T10:51:19.058Z,7.45
2019-02-16T10:54:26.745Z,7.15
2019-02-16T10:57:00.762Z,7.35
2019-02-16T10:59:51.592Z,10.68
2019-02-16T11:02:54.658Z,8.20
2019-02-16T11:05:42.821Z,8.48
2019-02-16T11:08:37.248Z,9.28
2019-02-16T11:11:34.391Z,10.32
2019-02-16T11:14:37.505Z,10.38
2019-02-16T11:17:26.261Z,9.45
2019-02-16T11:20:07.355Z,10.95
2019-02-16T11:22:44.661Z,11.00
2019-02-16T11:25:22.967Z,11.22
2019-02-16T11:28:14.187Z,12.53
2019-02-16T11:31:06.233Z,17.70
2019-02-16T11:33:50.430Z,11.95
2019-02-16T11:36:26.378Z,12.10
2019-02-16T11:39:14.669Z,11.85
2019-02-16T11:42:08.972Z,12.45
2019-02-16T11:45:08.874Z,12.05
2019-02-16T11:47:55.349Z,12.60
2019-02-16T11:50:49.510Z,11.97
2019-02-16T11:53:36.079Z,12.30
2019-02-16T11:56:16.428Z,13.35
2019-02-16T16:11:00.299Z,12.70
2019-02-16T16:13:36.408Z,11.67
2019-02-16T16:16:39.414Z,12.37
2019-02-16T16:19:45.147Z,13.90
2019-02-16T16:22:34.782Z,12.27
2019-02-16T16:25:29.259Z,13.37
2019-02-16T16:28:17.385Z,13.40
2019-02-16T16:31:08.542Z,12.57
2019-02-16T16:34:06.126Z,12.20
2019-02-16T16:36:53.865Z,12.17
2019-02-16T16:39:40.331Z,11.53
2019-02-16T17:35:02.590Z,12.13
2019-02-16T17:37:46.835Z,11.80
2019-02-16T17:40:25.171Z,11.20
2019-02-16T17:43:11.766Z,11.63
2019-02-16T17:46:02.785Z,11.97
2019-02-16T17:48:51.117Z,12.00
2019-02-16T17:51:32.950Z,15.20
2019-02-16T17:54:19.371Z,16.70
2019-02-16T17:57:13.496Z,15.90
2019-02-16T18:00:01.443Z,14.73
2019-02-16T18:02:47.896Z,13.90
2019-02-16T18:05:40.548Z,12.50
2019-02-16T18:08:32.988Z,13.40
2019-02-16T18:11:30.383Z,12.70
2019-02-16T18:14:24.529Z,13.00
2019-02-16T18:17:12.497Z,13.93
2019-02-16T18:19:54.662Z,13.50
2019-02-16T18:22:41.782Z,13.23
2019-02-16T18:25:38.850Z,13.67
2019-02-16T18:28:25.370Z,13.00
2019-02-16T18:31:15.531Z,12.37
2019-02-16T18:33:56.256Z,12.60
2019-02-16T18:37:02.649Z,12.80
2019-02-16T18:39:56.606Z,14.20
2019-02-16T18:42:45.895Z,15.07
2019-02-16T18:45:39.810Z,14.07
2019-02-16T18:48:18.916Z,17.23
2019-02-16T18:51:01.752Z,13.93
2019-02-16T18:53:52.744Z,13.00
2019-02-16T18:56:52.945Z,13.77
2019-02-16T18:59:59.179Z,14.87
2019-02-16T19:02:50.061Z,15.10
2019-02-16T19:05:53.466Z,15.23
2019-02-16T19:08:47.677Z,15.00
2019-02-16T19:11:44.655Z,15.03
2019-02-16T21:10:00.502Z,15.33
2019-02-16T21:12:51.213Z,14.40
2019-02-16T21:15:34.459Z,15.27
2019-02-16T21:18:28.752Z,15.00
2019-02-16T21:21:17.097Z,15.00
2019-02-16T21:24:03.865Z,15.63
2019-02-16T21:26:50.338Z,14.93
2019-02-16T21:29:35.465Z,15.20
2019-02-16T21:32:11.439Z,15.97
2019-02-16T21:34:58.268Z,16.10
2019-02-16T21:37:45.032Z,15.90
2019-02-16T21:40:31.539Z,16.00
2019-02-16T21:43:28.502Z,15.37
2019-02-16T21:46:15.846Z,13.83
2019-02-16T21:49:06.962Z,15.23
2019-02-16T21:51:57.900Z,14.33
2019-02-16T21:54:40.675Z,14.80
2019-02-16T21:57:28.715Z,14.80
2019-02-16T22:00:15.271Z,14.77
2019-02-16T22:02:58.335Z,14.83
2019-02-16T22:05:39.211Z,14.50
2019-02-16T22:08:18.508Z,15.63
2019-02-16T22:10:55.490Z,13.80
2019-02-16T22:13:24.721Z,15.40
2019-02-16T22:15:53.885Z,15.33
2019-02-16T22:18:23.012Z,15.60
2019-02-16T22:20:52.212Z,15.07
2019-02-16T22:23:21.303Z,15.37
2019-02-16T22:25:50.456Z,14.77
2019-02-16T22:28:30.181Z,15.63
2019-02-16T22:30:50.464Z,14.90
2019-02-16T22:33:19.569Z,15.87
2019-02-16T22:35:48.613Z,15.77
2019-02-16T22:38:17.845Z,15.27
2019-02-16T22:40:46.941Z,14.90
2019-02-16T22:43:16.058Z,15.23
2019-02-16T22:45:45.180Z,14.00
2019-02-16T22:48:14.814Z,13.97
2019-02-16T22:50:44.038Z,14.30
2019-02-16T22:53:13.243Z,15.33
2019-02-16T22:55:42.499Z,15.43
2019-02-16T22:58:11.670Z,15.10
2019-02-16T23:00:44.412Z,16.63
2019-02-16T23:03:14.011Z,14.70
2019-02-16T23:05:43.146Z,15.53
2019-02-16T23:08:12.328Z,13.97
2019-02-16T23:10:41.446Z,14.80
2019-02-16T23:13:10.666Z,15.40
2019-02-16T23:15:39.809Z,14.70
2019-02-16T23:18:09.017Z,14.63
2019-02-16T23:20:38.129Z,14.77
2019-02-16T23:23:08.123Z,14.53
2019-02-16T23:25:37.179Z,13.77
2019-02-16T23:28:06.354Z,14.73
2019-02-16T23:30:35.460Z,15.33
2019-02-16T23:33:04.581Z,13.50
2019-02-16T23:35:33.647Z,15.60
2019-02-16T23:38:02.794Z,15.40
2019-02-16T23:40:31.857Z,13.93
2019-02-16T23:43:01.046Z,14.90
2019-02-16T23:45:30.097Z,14.63
2019-02-16T23:47:59.191Z,14.57
2019-02-16T23:50:28.308Z,13.90
2019-02-16T23:52:57.393Z,14.33
2019-02-16T23:55:26.519Z,14.17
2019-02-16T23:57:55.644Z,14.73
